3小时前

塔夫 Leeuwarden Air Base (EHLW)

2021年11月29日 07:002021年11月29日 19:00有效
于2021年11月29日 07:48发行

时间
星期一
07:00
40%
星期一
08:00
40%
星期一
09:00
40%
星期一
10:00
40%
星期一
11:00
40%
星期一
12:00
40%
星期一
13:00
40%
星期一
14:00
40%
星期一
15:00
40%
星期一
16:00
星期一
17:00
星期一
18:00
代码
LIFR
LIFR
LIFR
LIFR
LIFR
LIFR
LIFR
LIFR
LIFR
VFR
VFR
VFR
天气
疏云,零星散落的云朵
疏云,零星散落的云朵
疏云,零星散落的云朵
疏云,零星散落的云朵
疏云,零星散落的云朵
疏云,零星散落的云朵
疏云,零星散落的云朵
疏云,零星散落的云朵
疏云,零星散落的云朵
疏云,零星散落的云朵
疏云,零星散落的云朵
疏云,零星散落的云朵
能见度
10 公里+
10 公里+
10 公里+
10 公里+
10 公里+
10 公里+
10 公里+
10 公里+
10 公里+
10 公里+
10 公里+
10 公里+
天花板
-
-
-
-
-
-
-
-
-
-
-
-
030°
030°
030°
030°
030°
030°
030°
030°
030°
030°
030°
030°
030°
030°
030°
030°
030°
030°
030°
030°
030°
030°
030°
030°
速度
3 千吨
3 千吨
3 千吨
3 千吨
3 千吨
3 千吨
3 千吨
3 千吨
3 千吨
3 千吨
3 千吨
3 千吨
阵风
温度/星期日
08:25
16:24

原版的

TAF EHLW 290540Z 2906/2918 03003KT 9999 SCT022 SCT040
PROB40 TEMPO 2906/2915 SCT022CB

TAF Leeuwarden Air Base

Leeuwarden Air Base是Leeuwarden,荷兰中的中型机场。 机场有{a,plural,=1{一条跑道} other{#跑道}}: 5/23 和 9/27

该报告是针对2021年11月29日 07:48, 当地时间上的Leeuwarden Air Base所做的。 从2021年11月29日 07:00到2021年11月29日 19:00, 当地时间有效.

预报

  • 从星期一 07:00到19:00

    • 风: 030° (北北东), 3 千吨
    • 能见度: 10 公里 或者更多
    • 乌云: 疏云,零星散落的云朵在2.200 ft的高度 和 疏云,零星散落的云朵在4.000 ft的高度.

  • 暂时在星期一 07:00和16:00之间 ({一个机会)

    • 乌云: 疏云,零星散落的云朵 , 积雨云在2.200 ft的高度.

白天

今天,太阳从08:25升起,在16:24降落。 这适用于Leeuwarden Air Base,世界夏令时可能有所不同。 当地时间与世界标准时间之间的时差为+1 小时。 当前,没有夏令时有效。